createdAt,value
2016-10-09T00:00:08.785Z,9.66
2016-10-09T00:01:08.805Z,9.68
2016-10-09T00:02:08.828Z,9.71
2016-10-09T00:03:08.846Z,9.66
2016-10-09T00:04:08.870Z,9.71
2016-10-09T00:05:08.896Z,9.68
2016-10-09T00:06:08.906Z,9.71
2016-10-09T00:08:08.945Z,9.78
2016-10-09T00:11:23.940Z,9.71
2016-10-09T00:12:09.037Z,9.69
2016-10-09T00:13:09.065Z,9.72
2016-10-09T00:14:24.001Z,9.72
2016-10-09T00:15:09.098Z,9.68
2016-10-09T00:16:09.119Z,9.66
2016-10-09T00:17:09.136Z,9.75
2016-10-09T00:18:09.165Z,9.76
2016-10-09T00:19:09.186Z,9.75
2016-10-09T00:20:09.207Z,9.81
2016-10-09T00:21:09.223Z,9.72
2016-10-09T00:22:09.245Z,9.72
2016-10-09T00:23:09.263Z,9.74
2016-10-09T00:24:09.284Z,9.78
2016-10-09T00:25:09.320Z,9.76
2016-10-09T00:26:09.333Z,9.81
2016-10-09T00:27:09.350Z,9.76
2016-10-09T00:28:09.375Z,9.65
2016-10-09T00:29:09.393Z,9.61
2016-10-09T00:30:24.336Z,9.72
2016-10-09T00:31:09.439Z,9.65
2016-10-09T00:32:09.506Z,9.72
2016-10-09T00:33:09.473Z,9.69
2016-10-09T00:34:09.502Z,9.69
2016-10-09T00:35:09.522Z,9.65
2016-10-09T00:36:09.534Z,9.69
2016-10-09T00:37:09.609Z,9.65
2016-10-09T00:38:09.580Z,9.65
2016-10-09T00:39:09.606Z,9.74
2016-10-09T00:40:09.868Z,9.64
2016-10-09T00:41:09.653Z,9.66
2016-10-09T00:42:09.660Z,9.65
2016-10-09T00:44:09.705Z,9.64
2016-10-09T00:45:24.648Z,9.6
2016-10-09T00:46:09.748Z,9.78
2016-10-09T00:47:09.767Z,9.64
2016-10-09T00:48:09.794Z,9.61
2016-10-09T00:49:10.109Z,9.61
2016-10-09T00:50:09.835Z,9.58
2016-10-09T00:51:09.853Z,9.65
2016-10-09T00:52:09.874Z,9.64
2016-10-09T00:53:09.897Z,9.58
2016-10-09T00:54:09.919Z,9.58
2016-10-09T00:55:09.938Z,9.65
2016-10-09T00:56:24.885Z,9.53
2016-10-09T00:57:24.904Z,9.48
2016-10-09T00:58:24.924Z,9.5
2016-10-09T00:59:10.130Z,9.43
2016-10-09T01:00:24.963Z,9.48
2016-10-09T01:01:24.985Z,9.47
2016-10-09T01:02:10.087Z,9.46
2016-10-09T01:03:10.106Z,9.43
2016-10-09T01:04:10.128Z,9.4
2016-10-09T01:05:10.142Z,9.5
2016-10-09T01:06:10.167Z,9.46
2016-10-09T01:07:10.193Z,9.46
2016-10-09T01:08:10.212Z,9.43
2016-10-09T01:09:10.232Z,9.4
2016-10-09T01:10:10.251Z,9.48
2016-10-09T01:11:10.270Z,9.43
2016-10-09T01:12:10.309Z,9.38
2016-10-09T01:13:10.316Z,9.4
2016-10-09T01:14:10.337Z,9.35
2016-10-09T01:15:10.354Z,9.38
2016-10-09T01:16:10.378Z,9.5
2016-10-09T01:17:25.373Z,9.46
2016-10-09T01:18:10.421Z,9.43
2016-10-09T01:19:10.446Z,9.43
2016-10-09T01:20:10.462Z,9.47
2016-10-09T01:21:10.481Z,9.42
2016-10-09T01:22:10.499Z,9.5
2016-10-09T01:23:25.453Z,9.51
2016-10-09T01:24:10.549Z,9.35
2016-10-09T01:25:10.818Z,9.36
2016-10-09T01:26:10.586Z,9.36
2016-10-09T01:27:10.604Z,9.47
2016-10-09T01:28:10.626Z,9.48
2016-10-09T01:29:10.651Z,9.4
2016-10-09T01:30:25.593Z,9.46
2016-10-09T01:31:10.691Z,9.5
2016-10-09T01:32:10.714Z,9.43
2016-10-09T01:33:25.650Z,9.48
2016-10-09T01:34:11.005Z,9.51
2016-10-09T01:35:10.772Z,9.46
2016-10-09T01:36:10.842Z,9.53
2016-10-09T01:37:10.813Z,9.43
2016-10-09T01:38:10.837Z,9.48
2016-10-09T01:39:10.858Z,9.48
2016-10-09T01:40:10.873Z,9.53
2016-10-09T01:41:10.905Z,9.57
2016-10-09T01:42:11.022Z,9.46
2016-10-09T01:43:10.941Z,9.43
2016-10-09T01:44:11.262Z,9.56
2016-10-09T01:45:25.905Z,9.51
2016-10-09T01:46:11.002Z,9.47
2016-10-09T01:47:25.943Z,9.47
2016-10-09T01:48:25.965Z,9.43
2016-10-09T01:49:25.987Z,9.43
2016-10-09T01:50:11.133Z,9.46
2016-10-09T01:51:11.107Z,9.56
2016-10-09T01:52:11.130Z,9.47
2016-10-09T01:53:11.151Z,9.43
2016-10-09T01:54:11.174Z,9.5
2016-10-09T01:55:11.199Z,9.53
2016-10-09T01:56:11.225Z,9.43
2016-10-09T01:59:11.273Z,9.43
2016-10-09T02:00:11.286Z,9.46
2016-10-09T02:01:11.318Z,9.46
2016-10-09T02:02:11.330Z,9.47
2016-10-09T02:03:11.604Z,9.42
2016-10-09T02:04:11.378Z,9.46
2016-10-09T02:05:26.324Z,9.46
2016-10-09T02:06:11.420Z,9.54
2016-10-09T02:07:11.442Z,9.46
2016-10-09T02:09:11.485Z,9.47
2016-10-09T02:10:11.499Z,9.64
2016-10-09T02:11:11.520Z,9.57
2016-10-09T02:12:11.544Z,9.56
2016-10-09T02:13:11.565Z,9.65
2016-10-09T02:14:26.512Z,9.6
2016-10-09T02:15:11.617Z,9.5
2016-10-09T02:16:11.726Z,9.6
2016-10-09T02:17:11.696Z,9.51
2016-10-09T02:18:11.672Z,9.61
2016-10-09T02:19:11.691Z,9.6
2016-10-09T02:20:26.632Z,9.56
2016-10-09T02:21:11.732Z,9.61
2016-10-09T02:22:11.748Z,9.57
2016-10-09T02:23:11.776Z,9.57
2016-10-09T02:24:11.792Z,9.6
2016-10-09T02:25:11.809Z,9.61
2016-10-09T02:26:11.839Z,9.61
2016-10-09T02:27:11.859Z,9.66
2016-10-09T02:28:11.883Z,9.64
2016-10-09T02:29:11.903Z,9.68
2016-10-09T02:30:11.923Z,9.6
2016-10-09T02:31:11.936Z,9.57
2016-10-09T02:32:11.961Z,9.57
2016-10-09T02:33:11.983Z,9.68
2016-10-09T02:34:12.005Z,9.57
2016-10-09T02:35:12.024Z,9.64
2016-10-09T02:36:12.045Z,9.74
2016-10-09T02:37:12.062Z,9.72
2016-10-09T02:38:12.084Z,9.71
2016-10-09T02:39:12.104Z,9.76
2016-10-09T02:40:12.134Z,9.69
2016-10-09T02:41:12.144Z,9.58
2016-10-09T02:42:12.173Z,9.66
2016-10-09T02:43:12.193Z,9.61
2016-10-09T02:44:12.214Z,9.69
2016-10-09T02:45:12.233Z,9.66
2016-10-09T02:46:12.254Z,9.71
2016-10-09T02:47:12.272Z,9.58
2016-10-09T02:48:27.219Z,9.51
2016-10-09T02:49:27.241Z,9.56
2016-10-09T02:50:12.338Z,9.61
2016-10-09T02:51:12.360Z,9.57
2016-10-09T02:52:27.555Z,9.65
2016-10-09T02:53:12.400Z,9.51
2016-10-09T02:54:12.423Z,9.57
2016-10-09T02:55:12.439Z,9.46
2016-10-09T02:56:12.464Z,9.42
2016-10-09T02:57:12.486Z,9.47
2016-10-09T02:58:12.503Z,9.42
2016-10-09T02:59:12.530Z,9.54
2016-10-09T03:00:12.545Z,9.48
2016-10-09T03:01:12.575Z,9.47
2016-10-09T03:02:12.584Z,9.36
2016-10-09T03:03:12.615Z,9.38
2016-10-09T03:04:27.553Z,9.36
2016-10-09T03:05:12.656Z,9.47
2016-10-09T03:06:27.596Z,9.39
2016-10-09T03:07:12.687Z,9.43
2016-10-09T03:08:27.636Z,9.46
2016-10-09T03:09:12.739Z,9.36
2016-10-09T03:10:12.760Z,9.47
2016-10-09T03:11:12.778Z,9.35
2016-10-09T03:12:12.800Z,9.38
2016-10-09T03:13:12.819Z,9.38
2016-10-09T03:14:12.847Z,9.42
2016-10-09T03:15:12.860Z,9.42
2016-10-09T03:16:12.882Z,9.35
2016-10-09T03:17:12.919Z,9.4
2016-10-09T03:18:12.923Z,9.35
2016-10-09T03:19:27.869Z,9.38
2016-10-09T03:20:12.964Z,9.42
2016-10-09T03:21:12.989Z,9.46
2016-10-09T03:22:13.006Z,9.46
2016-10-09T03:23:13.029Z,9.48
2016-10-09T03:24:27.973Z,9.5
2016-10-09T03:25:13.080Z,9.46
2016-10-09T03:26:13.086Z,9.46
2016-10-09T03:27:13.124Z,9.38
2016-10-09T03:28:13.127Z,9.42
2016-10-09T03:29:13.454Z,9.46
2016-10-09T03:30:13.469Z,9.46
2016-10-09T03:32:13.214Z,9.43
2016-10-09T03:33:13.236Z,9.4
2016-10-09T03:34:13.267Z,9.46
2016-10-09T03:35:13.280Z,9.42
2016-10-09T03:36:13.304Z,9.4
2016-10-09T03:37:13.324Z,9.43
2016-10-09T03:38:28.262Z,9.33
2016-10-09T03:39:13.361Z,9.48
2016-10-09T03:40:28.301Z,9.36
2016-10-09T03:41:13.405Z,9.48
2016-10-09T03:42:13.428Z,9.36
2016-10-09T03:43:13.449Z,9.46
2016-10-09T03:44:13.461Z,9.47
2016-10-09T03:45:13.488Z,9.4
2016-10-09T03:46:13.805Z,9.47
2016-10-09T03:47:13.524Z,9.42
2016-10-09T03:49:13.572Z,9.46
2016-10-09T03:50:13.587Z,9.51
2016-10-09T03:52:13.635Z,9.53
2016-10-09T03:53:13.656Z,9.56
2016-10-09T03:54:13.671Z,9.53
2016-10-09T03:55:28.619Z,9.6
2016-10-09T03:56:13.717Z,9.56
2016-10-09T03:57:13.742Z,9.53
2016-10-09T03:58:13.760Z,9.51
2016-10-09T03:59:14.073Z,9.51
2016-10-09T04:00:13.807Z,9.56
2016-10-09T04:01:13.820Z,9.54
2016-10-09T04:02:13.840Z,9.56
2016-10-09T04:03:28.790Z,9.53
2016-10-09T04:04:13.880Z,9.57
2016-10-09T04:05:13.904Z,9.46
2016-10-09T04:06:14.230Z,9.54
2016-10-09T04:07:13.945Z,9.56
2016-10-09T04:08:13.986Z,9.57
2016-10-09T04:09:13.983Z,9.53
2016-10-09T04:10:14.011Z,9.69
2016-10-09T04:11:14.031Z,9.61
2016-10-09T04:12:14.051Z,9.65
2016-10-09T04:13:14.067Z,9.54
2016-10-09T04:14:14.695Z,9.61
2016-10-09T04:15:14.413Z,9.6
2016-10-09T04:16:14.439Z,9.65
2016-10-09T04:17:14.162Z,9.57
2016-10-09T04:18:14.175Z,9.65
2016-10-09T04:19:14.197Z,9.64
2016-10-09T04:21:14.237Z,9.53
2016-10-09T04:22:29.187Z,9.56
2016-10-09T04:23:14.277Z,9.51
2016-10-09T04:24:14.556Z,9.58
2016-10-09T04:25:14.323Z,9.58
2016-10-09T04:26:14.368Z,9.6
2016-10-09T04:27:29.290Z,9.54
2016-10-09T04:28:14.392Z,9.61
2016-10-09T04:29:14.409Z,9.65
2016-10-09T04:30:14.429Z,9.6
2016-10-09T04:31:14.447Z,9.57
2016-10-09T04:32:14.469Z,9.64
2016-10-09T04:33:14.499Z,9.58
2016-10-09T04:34:14.511Z,9.56
2016-10-09T04:35:14.535Z,9.58
2016-10-09T04:36:14.558Z,9.6
2016-10-09T04:37:14.573Z,9.61
2016-10-09T04:38:14.596Z,9.56
2016-10-09T04:39:14.613Z,9.6
2016-10-09T04:40:29.864Z,9.6
2016-10-09T04:41:14.660Z,9.64
2016-10-09T04:42:14.682Z,9.57
2016-10-09T04:43:29.619Z,9.54
2016-10-09T04:44:14.717Z,9.66
2016-10-09T04:45:14.742Z,9.66
2016-10-09T04:46:14.760Z,9.65
2016-10-09T04:47:14.779Z,9.58
2016-10-09T04:48:15.107Z,9.61
2016-10-09T04:49:14.826Z,9.71
2016-10-09T04:50:14.844Z,9.64
2016-10-09T04:51:14.869Z,9.65
2016-10-09T04:52:14.889Z,9.64
2016-10-09T04:53:14.905Z,9.58
2016-10-09T04:54:14.933Z,9.57
2016-10-09T04:55:29.876Z,9.65
2016-10-09T04:56:29.894Z,9.64
2016-10-09T04:58:29.934Z,9.56
2016-10-09T05:00:15.058Z,9.72
2016-10-09T05:02:15.099Z,9.69
2016-10-09T05:03:15.118Z,9.64
2016-10-09T05:04:15.136Z,9.65
2016-10-09T05:05:15.154Z,9.65
2016-10-09T05:06:15.181Z,9.68
2016-10-09T05:07:15.198Z,9.66
2016-10-09T05:08:15.222Z,9.66
2016-10-09T05:09:15.252Z,9.71
2016-10-09T05:10:15.471Z,9.56
2016-10-09T05:12:30.231Z,9.65
2016-10-09T05:13:15.333Z,9.57
2016-10-09T05:14:15.347Z,9.65
2016-10-09T05:15:30.287Z,9.69
2016-10-09T05:16:15.389Z,9.64
2016-10-09T05:17:15.409Z,9.58
2016-10-09T05:18:15.430Z,9.58
2016-10-09T05:19:15.459Z,9.69
2016-10-09T05:20:15.474Z,9.65
2016-10-09T05:21:15.500Z,9.54
2016-10-09T05:22:15.509Z,9.61
2016-10-09T05:23:15.533Z,9.69
2016-10-09T05:24:15.563Z,9.57
2016-10-09T05:25:15.576Z,9.64
2016-10-09T05:26:15.599Z,9.64
2016-10-09T05:27:15.627Z,9.69
2016-10-09T05:28:15.636Z,9.69
2016-10-09T05:29:15.671Z,9.76
2016-10-09T05:30:30.607Z,9.68
2016-10-09T05:31:15.701Z,9.72
2016-10-09T05:32:15.729Z,9.69
2016-10-09T05:33:15.744Z,9.69
2016-10-09T05:34:15.768Z,9.74
2016-10-09T05:36:15.807Z,9.74
2016-10-09T05:37:15.836Z,9.66
2016-10-09T05:38:15.859Z,9.6
2016-10-09T05:39:16.120Z,9.65
2016-10-09T05:40:15.893Z,9.58
2016-10-09T05:41:15.912Z,9.69
2016-10-09T05:42:30.860Z,9.71
2016-10-09T05:43:15.963Z,9.65
2016-10-09T05:44:15.980Z,9.74
2016-10-09T05:45:16.006Z,9.72
2016-10-09T05:46:16.335Z,9.69
2016-10-09T05:48:16.064Z,9.71
2016-10-09T05:49:16.077Z,9.71
2016-10-09T05:50:16.115Z,9.74
2016-10-09T05:51:16.124Z,9.76
2016-10-09T05:52:16.147Z,9.74
2016-10-09T05:53:31.088Z,9.79
2016-10-09T05:54:16.181Z,9.71
2016-10-09T05:55:16.207Z,9.71
2016-10-09T05:56:16.228Z,9.74
2016-10-09T05:57:16.497Z,9.68
2016-10-09T05:58:16.266Z,9.69
2016-10-09T06:00:31.235Z,9.68
2016-10-09T06:02:31.275Z,9.64
2016-10-09T06:03:16.377Z,9.69
2016-10-09T06:04:16.391Z,9.69
2016-10-09T06:05:16.417Z,9.81
2016-10-09T06:06:16.438Z,9.76
2016-10-09T06:07:16.456Z,9.81
2016-10-09T06:08:16.483Z,9.84
2016-10-09T06:09:16.499Z,9.71
2016-10-09T06:10:16.542Z,9.87
2016-10-09T06:11:16.543Z,9.79
2016-10-09T06:12:16.572Z,9.61
2016-10-09T06:13:31.508Z,9.75
2016-10-09T06:14:31.530Z,9.65
2016-10-09T06:15:16.626Z,9.65
2016-10-09T06:16:16.644Z,9.71
2016-10-09T06:17:16.670Z,9.64
2016-10-09T06:18:31.609Z,9.74
2016-10-09T06:19:16.707Z,9.68
2016-10-09T06:20:16.727Z,9.74
2016-10-09T06:21:16.759Z,9.65
2016-10-09T06:22:16.775Z,9.65
2016-10-09T06:23:16.792Z,9.69
2016-10-09T06:24:16.820Z,9.69
2016-10-09T06:25:16.934Z,9.72
2016-10-09T06:26:16.858Z,9.78
2016-10-09T06:27:16.880Z,9.79
2016-10-09T06:28:16.893Z,9.78
2016-10-09T06:29:31.846Z,9.78
2016-10-09T06:30:31.866Z,9.81
2016-10-09T06:31:31.885Z,9.75
2016-10-09T06:32:16.983Z,9.78
2016-10-09T06:33:17.004Z,9.86
2016-10-09T06:34:32.246Z,9.75
2016-10-09T06:35:17.047Z,9.66
2016-10-09T06:36:17.062Z,9.83
2016-10-09T06:37:17.094Z,9.83
2016-10-09T06:38:17.110Z,9.87
2016-10-09T06:39:17.131Z,9.87
2016-10-09T06:40:17.149Z,9.84
2016-10-09T06:41:17.435Z,9.78
2016-10-09T06:42:17.192Z,9.96
2016-10-09T06:43:17.220Z,9.97
2016-10-09T06:44:17.241Z,9.97
2016-10-09T06:45:17.252Z,9.99
2016-10-09T06:46:32.199Z,9.84
2016-10-09T06:47:17.302Z,9.96
2016-10-09T06:48:17.319Z,9.99
2016-10-09T06:49:17.342Z,9.87
2016-10-09T06:50:32.280Z,9.87
2016-10-09T06:51:17.383Z,9.94
2016-10-09T06:52:17.403Z,9.9
2016-10-09T06:53:17.420Z,9.83
2016-10-09T06:54:17.443Z,9.86
2016-10-09T06:55:17.467Z,9.96
2016-10-09T06:56:17.489Z,9.79
2016-10-09T06:57:17.510Z,9.86
2016-10-09T06:58:17.528Z,9.75
2016-10-09T06:59:17.554Z,9.79
2016-10-09T07:00:17.572Z,9.87
2016-10-09T07:01:17.588Z,9.84
2016-10-09T07:02:17.614Z,9.86
2016-10-09T07:05:32.600Z,9.84
2016-10-09T07:06:17.696Z,9.86
2016-10-09T07:07:17.716Z,9.83
2016-10-09T07:08:17.739Z,9.94
2016-10-09T07:09:17.761Z,9.91
2016-10-09T07:10:17.786Z,9.99
2016-10-09T07:11:18.056Z,9.91
2016-10-09T07:12:17.827Z,9.99
2016-10-09T07:13:17.841Z,9.94
2016-10-09T07:14:17.865Z,9.99
2016-10-09T07:15:17.892Z,9.96
2016-10-09T07:16:32.836Z,9.96
2016-10-09T07:17:17.934Z,9.94
2016-10-09T07:18:17.955Z,10.02
2016-10-09T07:19:17.980Z,10.02
2016-10-09T07:20:17.996Z,10.01
2016-10-09T07:21:18.022Z,10.04
2016-10-09T07:22:18.033Z,10.05
2016-10-09T07:23:18.052Z,10.07
2016-10-09T07:24:18.086Z,9.96
2016-10-09T07:25:18.103Z,9.81
2016-10-09T07:26:18.127Z,9.81
2016-10-09T07:27:18.140Z,9.9
2016-10-09T07:28:18.365Z,9.87
2016-10-09T07:29:18.184Z,9.86
2016-10-09T07:30:18.204Z,9.96
2016-10-09T07:31:18.228Z,10.01
2016-10-09T07:32:33.173Z,10.04
2016-10-09T07:33:18.272Z,10.01
2016-10-09T07:34:18.293Z,10.01
2016-10-09T07:35:18.319Z,10.04
2016-10-09T07:36:18.332Z,9.96
2016-10-09T07:37:33.275Z,9.96
2016-10-09T07:38:18.373Z,10.05
2016-10-09T07:39:18.405Z,10.02
2016-10-09T07:40:18.419Z,10.02
2016-10-09T07:41:18.689Z,9.94
2016-10-09T07:42:18.457Z,9.94
2016-10-09T07:43:18.482Z,9.87
2016-10-09T07:44:18.500Z,9.96
2016-10-09T07:45:18.523Z,9.84
2016-10-09T07:46:18.546Z,9.91
2016-10-09T07:48:18.587Z,9.87
2016-10-09T07:49:18.625Z,9.87
2016-10-09T07:50:18.636Z,9.84
2016-10-09T07:51:18.651Z,9.75
2016-10-09T07:52:18.675Z,9.86
2016-10-09T07:53:33.618Z,9.83
2016-10-09T07:54:18.736Z,9.71
2016-10-09T07:55:18.736Z,9.68
2016-10-09T07:56:18.772Z,9.74
2016-10-09T07:57:18.781Z,9.81
2016-10-09T07:58:18.795Z,9.74
2016-10-09T07:59:19.292Z,9.78
2016-10-09T08:00:18.837Z,9.74
2016-10-09T08:01:18.868Z,9.72
2016-10-09T08:02:18.893Z,9.78
2016-10-09T08:03:34.133Z,9.83
2016-10-09T08:04:33.852Z,9.69
2016-10-09T08:05:18.943Z,9.78
2016-10-09T08:06:18.971Z,9.76
2016-10-09T08:07:18.988Z,9.86
2016-10-09T08:08:19.017Z,9.89
2016-10-09T08:09:33.955Z,9.79
2016-10-09T08:10:33.972Z,9.89
2016-10-09T08:11:19.072Z,9.78
2016-10-09T08:12:19.097Z,9.79
2016-10-09T08:13:19.126Z,9.76
2016-10-09T08:14:19.137Z,9.78
2016-10-09T08:15:19.166Z,9.72
2016-10-09T08:16:19.180Z,9.79
2016-10-09T08:17:19.500Z,9.84
2016-10-09T08:18:19.222Z,9.76
2016-10-09T08:19:19.259Z,9.86
2016-10-09T08:21:34.210Z,9.84
2016-10-09T08:22:19.303Z,9.9
2016-10-09T08:23:19.330Z,9.91
2016-10-09T08:24:19.349Z,9.9
2016-10-09T08:25:34.290Z,9.93
2016-10-09T08:26:19.386Z,10.05
2016-10-09T08:27:19.413Z,9.99
2016-10-09T08:28:19.428Z,9.93
2016-10-09T08:29:19.457Z,10.01
2016-10-09T08:30:19.470Z,10.01
2016-10-09T08:31:19.493Z,10.07
2016-10-09T08:32:19.516Z,9.97
2016-10-09T08:33:19.841Z,10.05
2016-10-09T08:34:19.560Z,10.02
2016-10-09T08:35:19.586Z,9.97
2016-10-09T08:36:19.602Z,9.96
2016-10-09T08:38:19.656Z,10.2
2016-10-09T08:39:19.671Z,10.23
2016-10-09T08:40:34.609Z,10.2
2016-10-09T08:41:19.709Z,10.09
2016-10-09T08:42:19.733Z,10.15
2016-10-09T08:43:19.749Z,10.22
2016-10-09T08:44:19.778Z,10.25
2016-10-09T08:45:19.795Z,10.17
2016-10-09T08:46:19.816Z,10.15
2016-10-09T08:47:19.833Z,10.26
2016-10-09T08:48:19.859Z,10.22
2016-10-09T08:50:19.901Z,10.12
2016-10-09T08:51:20.224Z,10.14
2016-10-09T08:52:19.947Z,10.2
2016-10-09T08:53:34.892Z,10.29
2016-10-09T08:54:19.995Z,10.23
2016-10-09T08:55:34.932Z,10.17
2016-10-09T08:56:20.034Z,10.27
2016-10-09T08:57:34.973Z,10.3
2016-10-09T08:58:20.329Z,10.27
2016-10-09T08:59:20.093Z,10.23
2016-10-09T09:00:20.117Z,10.2
2016-10-09T09:01:20.138Z,10.25
2016-10-09T09:02:20.161Z,10.32
2016-10-09T09:03:20.184Z,10.23
2016-10-09T09:04:20.203Z,10.26
2016-10-09T09:05:20.231Z,10.32
2016-10-09T09:06:20.243Z,10.38
2016-10-09T09:07:20.263Z,10.48
2016-10-09T09:08:20.288Z,10.47
2016-10-09T09:09:20.313Z,10.47
2016-10-09T09:10:20.336Z,10.51
2016-10-09T09:12:35.299Z,10.61
2016-10-09T09:13:20.399Z,10.6
2016-10-09T09:14:20.422Z,10.66
2016-10-09T09:15:20.442Z,10.71
2016-10-09T09:16:20.468Z,10.71
2016-10-09T09:17:20.487Z,10.48
2016-10-09T09:18:20.505Z,10.51
2016-10-09T09:19:20.526Z,10.53
2016-10-09T09:20:20.545Z,10.63
2016-10-09T09:21:20.570Z,10.55
2016-10-09T09:24:20.647Z,10.44
2016-10-09T09:25:20.662Z,10.52
2016-10-09T09:26:20.685Z,10.63
2016-10-09T09:27:20.704Z,10.56
2016-10-09T09:28:35.646Z,10.59
2016-10-09T09:29:35.664Z,10.47
2016-10-09T09:30:20.775Z,10.52
2016-10-09T09:31:20.785Z,10.51
2016-10-09T09:32:21.079Z,10.51
2016-10-09T09:33:20.833Z,10.52
2016-10-09T09:34:20.852Z,10.45
2016-10-09T09:35:35.803Z,10.36
2016-10-09T09:36:20.894Z,10.38
2016-10-09T09:37:21.171Z,10.34
2016-10-09T09:38:20.943Z,10.34
2016-10-09T09:39:35.887Z,10.4
2016-10-09T09:40:35.908Z,10.33
2016-10-09T09:41:21.000Z,10.3
2016-10-09T09:42:21.028Z,10.15
2016-10-09T09:43:21.056Z,10.18
2016-10-09T09:44:35.996Z,10.11
2016-10-09T09:45:36.011Z,10.15
2016-10-09T09:46:21.120Z,10.17
2016-10-09T09:47:21.133Z,10.22
2016-10-09T09:48:21.159Z,10.18
2016-10-09T09:49:21.179Z,10.18
2016-10-09T09:50:21.213Z,10.18
2016-10-09T09:51:21.222Z,10.14
2016-10-09T09:52:21.245Z,10.04
2016-10-09T09:53:21.262Z,10.01
2016-10-09T09:54:21.299Z,10.18
2016-10-09T09:56:21.326Z,10.2
2016-10-09T09:57:21.646Z,10.25
2016-10-09T09:58:36.293Z,10.27
2016-10-09T09:59:21.395Z,10.26
2016-10-09T10:00:36.341Z,10.25
2016-10-09T10:01:21.434Z,10.26
2016-10-09T10:02:21.462Z,10.23
2016-10-09T10:03:21.481Z,10.23
2016-10-09T10:04:21.749Z,10.18
2016-10-09T10:05:21.528Z,10.23
2016-10-09T10:06:21.540Z,10.32
2016-10-09T10:07:21.569Z,10.18
2016-10-09T10:08:21.587Z,10.34
2016-10-09T10:10:21.636Z,10.47
2016-10-09T10:11:21.651Z,10.45
2016-10-09T10:12:21.974Z,10.48
2016-10-09T10:13:21.691Z,10.52
2016-10-09T10:14:21.716Z,10.52
2016-10-09T10:15:36.663Z,10.53
2016-10-09T10:16:21.760Z,10.42
2016-10-09T10:17:21.780Z,10.7
2016-10-09T10:18:21.798Z,10.74
2016-10-09T10:19:21.826Z,10.88
2016-10-09T10:20:21.847Z,10.91
2016-10-09T10:21:21.871Z,11.04
2016-10-09T10:22:21.896Z,11.14
2016-10-09T10:23:21.915Z,11.24
2016-10-09T10:24:21.934Z,11.09
2016-10-09T10:25:21.953Z,11.33
2016-10-09T10:26:21.981Z,11.27
2016-10-09T10:27:22.001Z,11.46
2016-10-09T10:28:22.028Z,11.49
2016-10-09T10:29:22.043Z,11.52
2016-10-09T10:30:22.075Z,11.33
2016-10-09T10:31:22.345Z,11.35
2016-10-09T10:32:22.110Z,11.39
2016-10-09T10:33:22.136Z,11.47
2016-10-09T10:34:22.152Z,11.22
2016-10-09T10:35:22.183Z,11.27
2016-10-09T10:36:22.399Z,11.32
2016-10-09T10:37:22.228Z,11.22
2016-10-09T10:38:22.247Z,11.28
2016-10-09T10:39:22.265Z,11.28
2016-10-09T10:40:22.291Z,11.11
2016-10-09T10:41:22.310Z,11.29
2016-10-09T10:42:37.260Z,11.29
2016-10-09T10:43:22.354Z,11.21
2016-10-09T10:44:22.373Z,11.11
2016-10-09T10:45:22.410Z,11.11
2016-10-09T10:46:22.421Z,11.09
2016-10-09T10:47:37.368Z,11.06
2016-10-09T10:48:22.468Z,11.03
2016-10-09T10:49:22.502Z,11.04
2016-10-09T10:50:22.563Z,11.19
2016-10-09T10:51:22.531Z,11.21
2016-10-09T10:52:22.559Z,11.39
2016-10-09T10:53:22.579Z,11.51
2016-10-09T10:55:22.676Z,11.42
2016-10-09T10:56:22.651Z,11.58
2016-10-09T10:57:22.668Z,11.55
2016-10-09T10:58:22.691Z,11.65
2016-10-09T10:59:37.640Z,11.42
2016-10-09T11:00:22.737Z,11.46
2016-10-09T11:02:37.705Z,11.7
2016-10-09T11:03:37.728Z,11.9
2016-10-09T11:04:22.831Z,11.96
2016-10-09T11:05:22.845Z,12.17
2016-10-09T11:06:22.875Z,12.35
2016-10-09T11:07:22.897Z,12.49
2016-10-09T11:08:22.916Z,12.5
2016-10-09T11:09:22.936Z,12.45
2016-10-09T11:10:22.964Z,12.38
2016-10-09T11:11:22.986Z,12.42
2016-10-09T11:12:23.011Z,12.46
2016-10-09T11:13:23.037Z,12.68
2016-10-09T11:14:23.057Z,12.71
2016-10-09T11:15:23.076Z,12.87
2016-10-09T11:16:23.105Z,13.08
2016-10-09T11:17:23.121Z,13.15
2016-10-09T11:18:38.071Z,13.19
2016-10-09T11:19:38.093Z,13.38
2016-10-09T11:20:23.198Z,13.48
2016-10-09T11:21:23.214Z,13.54
2016-10-09T11:22:23.244Z,13.39
2016-10-09T11:23:23.268Z,13.46
2016-10-09T11:24:23.294Z,13.52
2016-10-09T11:25:23.308Z,13.59
2016-10-09T11:26:23.336Z,13.48
2016-10-09T11:27:23.363Z,13.51
2016-10-09T11:28:23.382Z,13.52
2016-10-09T11:29:23.403Z,13.46
2016-10-09T11:30:23.431Z,13.29
2016-10-09T11:32:23.475Z,13.23
2016-10-09T11:33:23.500Z,13.38
2016-10-09T11:34:23.525Z,13.12
2016-10-09T11:35:38.470Z,12.9
2016-10-09T11:36:23.570Z,12.65
2016-10-09T11:37:23.594Z,12.47
2016-10-09T11:38:23.617Z,12.42
2016-10-09T11:39:23.644Z,12.29
2016-10-09T11:40:23.667Z,12.12
2016-10-09T11:41:23.685Z,11.98
2016-10-09T11:42:23.712Z,11.96
2016-10-09T11:43:23.727Z,11.95
2016-10-09T11:44:23.756Z,11.9
2016-10-09T11:45:23.776Z,11.85
2016-10-09T11:46:23.810Z,11.95
2016-10-09T11:47:23.825Z,12.01
2016-10-09T11:48:23.851Z,11.96
2016-10-09T11:49:23.873Z,12.02
2016-10-09T11:50:38.817Z,12.07
2016-10-09T11:51:23.918Z,12.04
2016-10-09T11:52:23.942Z,12.1
2016-10-09T11:53:23.962Z,12.19
2016-10-09T11:54:23.988Z,12.35
2016-10-09T11:55:24.010Z,12.35
2016-10-09T11:56:24.033Z,12.34
2016-10-09T11:57:24.057Z,12.46
2016-10-09T11:58:24.076Z,12.7
2016-10-09T11:59:24.101Z,12.77
2016-10-09T12:00:24.127Z,12.89
2016-10-09T12:01:39.071Z,12.95
2016-10-09T12:02:24.173Z,12.71
2016-10-09T12:03:24.194Z,12.79
2016-10-09T12:04:24.217Z,12.87
2016-10-09T12:05:24.237Z,12.87
2016-10-09T12:06:24.268Z,12.87
2016-10-09T12:07:24.286Z,12.89
2016-10-09T12:08:24.312Z,12.89
2016-10-09T12:09:24.339Z,12.87
2016-10-09T12:10:24.358Z,12.83
2016-10-09T12:11:24.377Z,12.87
2016-10-09T12:12:24.401Z,12.75
2016-10-09T12:13:24.424Z,12.68
2016-10-09T12:16:24.495Z,12.78
2016-10-09T12:17:39.443Z,12.82
2016-10-09T12:18:24.542Z,12.86
2016-10-09T12:19:24.566Z,12.9
2016-10-09T12:20:24.588Z,12.93
2016-10-09T12:21:24.617Z,13.03
2016-10-09T12:22:39.560Z,13
2016-10-09T12:23:24.660Z,13.03
2016-10-09T12:24:24.684Z,13.12
2016-10-09T12:25:24.705Z,13.2
2016-10-09T12:26:24.736Z,13.19
2016-10-09T12:27:24.751Z,13.2
2016-10-09T12:28:24.774Z,13.36
2016-10-09T12:29:24.796Z,13.32
2016-10-09T12:30:24.821Z,13.49
2016-10-09T12:31:24.849Z,13.51
2016-10-09T12:32:24.872Z,13.54
2016-10-09T12:34:24.914Z,13.6
2016-10-09T12:35:24.944Z,13.48
2016-10-09T12:36:24.968Z,13.48
2016-10-09T12:37:25.004Z,13.41
2016-10-09T12:38:39.935Z,13.15
2016-10-09T12:39:25.038Z,13.12
2016-10-09T12:40:25.060Z,13.03
2016-10-09T12:41:25.081Z,12.79
2016-10-09T12:42:25.108Z,12.68
2016-10-09T12:43:25.134Z,12.47
2016-10-09T12:44:25.406Z,12.45
2016-10-09T12:45:25.178Z,12.32
2016-10-09T12:46:25.201Z,12.17
2016-10-09T12:47:25.225Z,12.12
2016-10-09T12:48:25.245Z,12.19
2016-10-09T12:49:40.195Z,11.94
2016-10-09T12:50:25.642Z,11.9
2016-10-09T12:51:26.321Z,11.76
2016-10-09T12:52:25.346Z,11.67
2016-10-09T12:53:40.284Z,11.61
2016-10-09T12:54:40.307Z,11.79
2016-10-09T12:55:25.413Z,11.8
2016-10-09T12:56:25.431Z,11.75
2016-10-09T12:57:25.710Z,11.73
2016-10-09T12:58:25.483Z,11.73
2016-10-09T12:59:25.500Z,11.76
2016-10-09T13:00:25.529Z,11.72
2016-10-09T13:01:25.547Z,11.88
2016-10-09T13:02:25.588Z,11.98
2016-10-09T13:03:25.596Z,11.95
2016-10-09T13:04:25.620Z,12.12
2016-10-09T13:05:25.640Z,11.94
2016-10-09T13:07:25.686Z,12.1
2016-10-09T13:08:25.707Z,12.12
2016-10-09T13:09:25.734Z,12.07
2016-10-09T13:10:40.675Z,12.04
2016-10-09T13:11:25.780Z,12.13
2016-10-09T13:12:25.802Z,12.16
2016-10-09T13:13:25.824Z,12.05
2016-10-09T13:14:25.845Z,12.16
2016-10-09T13:15:25.874Z,12.2
2016-10-09T13:16:25.891Z,12.23
2016-10-09T13:17:25.916Z,12.29
2016-10-09T13:18:25.940Z,12.16
2016-10-09T13:19:25.958Z,12.2
2016-10-09T13:20:25.984Z,12.09
2016-10-09T13:22:26.029Z,12.19
2016-10-09T13:23:26.055Z,12.09
2016-10-09T13:24:26.380Z,12.09
2016-10-09T13:25:41.021Z,12.1
2016-10-09T13:26:26.128Z,12.2
2016-10-09T13:27:26.148Z,12.1
2016-10-09T13:28:26.169Z,12.2
2016-10-09T13:29:26.199Z,12.23
2016-10-09T13:30:26.223Z,12.28
2016-10-09T13:31:26.236Z,12.17
2016-10-09T13:32:26.259Z,12.2
2016-10-09T13:33:26.291Z,12.16
2016-10-09T13:34:26.318Z,12.16
2016-10-09T13:35:26.336Z,12.14
2016-10-09T13:36:26.354Z,12.34
2016-10-09T13:37:26.382Z,12.39
2016-10-09T13:38:26.400Z,12.35
2016-10-09T13:39:41.346Z,12.37
2016-10-09T13:40:26.449Z,12.38
2016-10-09T13:41:26.469Z,12.31
2016-10-09T13:42:26.497Z,12.35
2016-10-09T13:43:27.266Z,12.42
2016-10-09T13:44:26.541Z,12.47
2016-10-09T13:45:26.559Z,12.46
2016-10-09T13:46:26.582Z,12.52
2016-10-09T13:47:26.617Z,12.7
2016-10-09T13:48:26.646Z,12.6